createdAt,value
2023-05-21T00:00:29.103Z,100470.85
2023-05-21T00:02:55.919Z,100468.09
2023-05-21T00:05:22.709Z,100469.36
2023-05-21T00:07:49.473Z,100470.13
2023-05-21T00:10:16.180Z,100469.13
2023-05-21T00:12:42.922Z,100468.01
2023-05-21T00:15:10.088Z,100469.20
2023-05-21T00:17:37.139Z,100471.86
2023-05-21T00:20:10.136Z,100468.73
2023-05-21T00:22:36.957Z,100470.60
2023-05-21T00:25:04.221Z,100471.34
2023-05-21T00:27:30.998Z,100467.89
2023-05-21T00:29:57.914Z,100467.95
2023-05-21T00:32:24.796Z,100470.49
2023-05-21T00:34:51.596Z,100472.89
2023-05-21T00:37:19.070Z,100473.00
2023-05-21T00:39:45.800Z,100474.13
2023-05-21T00:42:13.269Z,100469.04
2023-05-21T00:44:40.419Z,100464.67
2023-05-21T00:47:08.267Z,100457.60
2023-05-21T00:49:35.027Z,100461.39
2023-05-21T00:52:01.937Z,100465.13
2023-05-21T00:54:29.047Z,100463.16
2023-05-21T00:56:56.204Z,100460.81
2023-05-21T00:59:23.216Z,100456.48
2023-05-21T01:01:56.097Z,100464.49
2023-05-21T01:04:26.333Z,100458.20
2023-05-21T01:06:53.604Z,100459.73
2023-05-21T01:09:20.441Z,100460.45
2023-05-21T01:11:48.915Z,100458.94
2023-05-21T01:14:16.246Z,100460.38
2023-05-21T01:16:44.354Z,100459.03
2023-05-21T01:19:14.267Z,100449.50
2023-05-21T01:21:42.154Z,100451.30
2023-05-21T01:24:08.884Z,100444.80
2023-05-21T01:26:38.821Z,100440.25
2023-05-21T01:29:06.703Z,100439.38
2023-05-21T01:31:48.970Z,100434.38
2023-05-21T01:34:16.276Z,100435.02
2023-05-21T01:36:46.968Z,100430.15
2023-05-21T01:39:17.249Z,100427.27
2023-05-21T01:41:45.185Z,100426.89
2023-05-21T01:44:11.975Z,100432.87
2023-05-21T01:46:38.745Z,100431.05
2023-05-21T01:49:06.413Z,100428.20
2023-05-21T01:51:33.616Z,100432.39
2023-05-21T01:54:00.544Z,100436.20
2023-05-21T01:56:28.543Z,100434.75
2023-05-21T01:58:59.878Z,100432.69
2023-05-21T02:01:30.192Z,100429.60
2023-05-21T02:03:58.106Z,100424.77
2023-05-21T02:06:25.401Z,100425.70
2023-05-21T02:08:52.302Z,100427.40
2023-05-21T02:11:19.534Z,100428.84
2023-05-21T02:13:46.266Z,100427.10
2023-05-21T02:16:14.896Z,100426.73
2023-05-21T02:18:43.617Z,100424.55
2023-05-21T02:21:13.308Z,100427.23
2023-05-21T02:23:42.163Z,100425.14
2023-05-21T02:26:08.883Z,100426.08
2023-05-21T02:28:36.394Z,100423.10
2023-05-21T02:31:03.239Z,100424.73
2023-05-21T02:33:29.925Z,100425.46
2023-05-21T02:35:56.755Z,100425.33
2023-05-21T02:38:26.058Z,100424.40
2023-05-21T02:40:53.224Z,100424.01
2023-05-21T02:43:20.221Z,100421.29
2023-05-21T02:45:47.145Z,100423.50
2023-05-21T02:48:14.514Z,100419.73
2023-05-21T02:50:41.454Z,100422.70
2023-05-21T02:53:08.334Z,100425.23
2023-05-21T02:55:36.179Z,100429.35
2023-05-21T02:58:03.066Z,100430.03
2023-05-21T03:00:29.815Z,100424.35
2023-05-21T03:02:56.766Z,100422.64
2023-05-21T03:05:24.464Z,100425.05
2023-05-21T03:07:51.394Z,100430.66
2023-05-21T03:10:18.410Z,100431.23
2023-05-21T03:12:45.721Z,100434.70
2023-05-21T03:15:14.960Z,100432.55
2023-05-21T03:17:44.839Z,100435.08
2023-05-21T03:20:17.258Z,100437.47
2023-05-21T03:22:44.585Z,100436.17
2023-05-21T03:25:12.693Z,100438.25
2023-05-21T03:27:39.694Z,100445.14
2023-05-21T03:30:11.360Z,100443.04
2023-05-21T03:32:49.890Z,100444.64
2023-05-21T03:35:17.095Z,100442.23
2023-05-21T03:37:43.930Z,100446.29
2023-05-21T03:40:11.624Z,100448.52
2023-05-21T03:42:38.435Z,100448.79
2023-05-21T03:45:06.567Z,100449.65
2023-05-21T03:47:43.188Z,100451.61
2023-05-21T03:50:10.657Z,100453.83
2023-05-21T03:52:37.409Z,100455.70
2023-05-21T03:55:05.001Z,100453.27
2023-05-21T03:57:31.651Z,100451.70
2023-05-21T03:59:59.107Z,100455.33
2023-05-21T04:02:27.540Z,100451.98
2023-05-21T04:04:56.055Z,100451.66
2023-05-21T04:07:23.942Z,100452.91
2023-05-21T04:09:50.774Z,100457.56
2023-05-21T04:12:19.229Z,100460.41
2023-05-21T04:14:46.743Z,100462.93
2023-05-21T04:17:13.516Z,100462.52
2023-05-21T04:19:40.966Z,100463.85
2023-05-21T04:22:09.880Z,100461.13
2023-05-21T04:24:38.244Z,100457.14
2023-05-21T04:27:17.807Z,100450.71
2023-05-21T04:29:44.708Z,100450.93
2023-05-21T04:32:11.700Z,100453.01
2023-05-21T04:34:39.786Z,100450.23
2023-05-21T04:37:06.939Z,100449.51
2023-05-21T04:39:34.819Z,100442.73
2023-05-21T04:42:03.187Z,100444.56
2023-05-21T04:44:30.349Z,100447.06
2023-05-21T04:46:58.751Z,100450.47
2023-05-21T04:49:25.793Z,100452.73
2023-05-21T04:51:52.690Z,100452.70
2023-05-21T04:54:20.051Z,100457.02
2023-05-21T04:56:47.452Z,100447.52
2023-05-21T04:59:15.044Z,100445.02
2023-05-21T05:01:43.860Z,100446.79
2023-05-21T05:04:10.563Z,100445.64
2023-05-21T05:06:37.373Z,100442.77
2023-05-21T05:09:05.030Z,100442.89
2023-05-21T05:11:31.734Z,100446.05
2023-05-21T05:13:58.627Z,100450.15
2023-05-21T05:16:26.085Z,100452.84
2023-05-21T05:18:53.452Z,100455.95
2023-05-21T05:21:22.030Z,100454.43
2023-05-21T05:23:48.726Z,100451.30
2023-05-21T05:26:15.602Z,100455.68
2023-05-21T05:28:43.212Z,100457.14
2023-05-21T05:31:09.923Z,100452.59
2023-05-21T05:33:36.714Z,100452.67
2023-05-21T05:36:03.882Z,100452.55
2023-05-21T05:38:31.217Z,100456.84
2023-05-21T05:40:58.135Z,100460.98
2023-05-21T05:43:26.535Z,100455.02
2023-05-21T05:45:54.973Z,100459.07
2023-05-21T05:48:21.731Z,100457.59
2023-05-21T05:50:48.669Z,100460.01
2023-05-21T05:53:15.600Z,100457.36
2023-05-21T05:55:42.279Z,100451.67
2023-05-21T05:58:09.196Z,100457.55
2023-05-21T06:00:47.336Z,100456.55
2023-05-21T06:03:14.299Z,100452.33
2023-05-21T06:05:41.895Z,100452.65
2023-05-21T06:08:08.613Z,100449.89
2023-05-21T06:10:35.717Z,100447.46
2023-05-21T06:13:03.592Z,100446.52
2023-05-21T06:15:30.426Z,100450.49
2023-05-21T06:17:57.332Z,100456.09
2023-05-21T06:20:24.116Z,100456.27
2023-05-21T06:22:51.002Z,100460.30
2023-05-21T06:25:18.420Z,100460.28
2023-05-21T06:27:45.202Z,100455.16
2023-05-21T06:30:17.891Z,100450.52
2023-05-21T06:32:44.933Z,100450.45
2023-05-21T06:35:11.891Z,100449.83
2023-05-21T06:37:39.100Z,100442.29
2023-05-21T06:40:07.632Z,100443.32
2023-05-21T06:42:34.442Z,100446.09
2023-05-21T06:45:20.182Z,100439.13
2023-05-21T06:47:47.041Z,100438.48
2023-05-21T06:50:13.810Z,100438.16
2023-05-21T06:52:40.970Z,100434.71
2023-05-21T06:55:08.183Z,100434.93
2023-05-21T06:57:57.870Z,100435.08
2023-05-21T07:00:24.830Z,100432.56
2023-05-21T07:02:51.636Z,100434.45
2023-05-21T07:05:19.279Z,100435.93
2023-05-21T07:07:46.396Z,100431.72
2023-05-21T07:10:13.411Z,100430.11
2023-05-21T07:12:41.645Z,100430.55
2023-05-21T07:15:09.286Z,100428.46
2023-05-21T07:17:36.081Z,100426.68
2023-05-21T07:20:06.310Z,100424.48
2023-05-21T07:22:33.218Z,100416.59
2023-05-21T07:24:59.910Z,100414.99
2023-05-21T07:27:26.949Z,100412.66
2023-05-21T07:29:54.579Z,100407.55
2023-05-21T07:32:22.004Z,100401.74
2023-05-21T07:34:48.872Z,100395.62
2023-05-21T07:37:16.148Z,100393.05
2023-05-21T07:39:42.893Z,100396.86
2023-05-21T07:42:11.035Z,100393.16
2023-05-21T07:44:37.863Z,100395.85
2023-05-21T07:47:04.932Z,100396.52
2023-05-21T07:49:32.304Z,100397.81
2023-05-21T07:51:59.208Z,100403.64
2023-05-21T07:54:26.381Z,100400.83
2023-05-21T07:56:53.369Z,100404.16
2023-05-21T07:59:45.001Z,100401.81
2023-05-21T08:02:12.121Z,100398.72
2023-05-21T08:04:41.102Z,100402.23
2023-05-21T08:07:09.884Z,100407.27
2023-05-21T08:09:36.872Z,100401.75
2023-05-21T08:12:04.270Z,100400.80
2023-05-21T08:14:31.249Z,100393.96
2023-05-21T08:16:58.443Z,100383.46
2023-05-21T08:19:25.252Z,100386.14
2023-05-21T08:21:53.101Z,100388.36
2023-05-21T08:24:20.865Z,100381.08
2023-05-21T08:26:49.615Z,100383.05
2023-05-21T08:29:16.803Z,100386.38
2023-05-21T08:31:43.617Z,100382.97
2023-05-21T08:34:10.662Z,100384.18
2023-05-21T08:36:47.141Z,100376.22
2023-05-21T08:39:39.935Z,100376.27
2023-05-21T08:42:13.004Z,100378.41
2023-05-21T08:44:40.032Z,100379.07
2023-05-21T08:47:06.676Z,100369.30
2023-05-21T08:49:33.720Z,100366.20
2023-05-21T08:52:00.449Z,100368.10
2023-05-21T08:54:28.162Z,100368.55
2023-05-21T08:56:55.612Z,100365.08
2023-05-21T08:59:23.255Z,100365.38
2023-05-21T09:01:50.337Z,100360.33
2023-05-21T09:04:27.699Z,100356.85
2023-05-21T09:06:55.242Z,100353.34
2023-05-21T09:09:58.901Z,100361.23
2023-05-21T09:12:26.035Z,100356.79
2023-05-21T09:14:52.885Z,100354.38
2023-05-21T09:17:25.032Z,100356.63
2023-05-21T09:20:11.173Z,100353.38
2023-05-21T09:22:48.990Z,100351.77
2023-05-21T09:27:59.306Z,100355.73
2023-05-21T09:30:29.730Z,100348.39
2023-05-21T09:32:58.642Z,100348.14
2023-05-21T09:35:25.979Z,100344.33
2023-05-21T09:37:53.211Z,100348.69
2023-05-21T09:40:21.780Z,100342.48
2023-05-21T09:42:50.894Z,100338.81
2023-05-21T09:45:24.730Z,100332.65
2023-05-21T09:47:53.795Z,100334.90
2023-05-21T09:50:25.733Z,100329.48
2023-05-21T09:52:55.736Z,100327.40
2023-05-21T09:55:23.093Z,100329.45
2023-05-21T09:57:50.942Z,100324.81
2023-05-21T10:00:23.144Z,100327.91
2023-05-21T10:02:54.519Z,100321.86
2023-05-21T10:05:21.248Z,100323.92
2023-05-21T10:07:50.338Z,100324.41
2023-05-21T10:10:19.227Z,100332.27
2023-05-21T10:12:54.110Z,100328.73
2023-05-21T10:15:23.920Z,100324.47
2023-05-21T10:17:50.838Z,100320.35
2023-05-21T10:20:17.551Z,100319.20
2023-05-21T10:22:44.610Z,100317.55
2023-05-21T10:25:13.055Z,100315.23
2023-05-21T10:27:39.726Z,100316.75
2023-05-21T10:30:07.020Z,100312.89
2023-05-21T10:32:34.030Z,100312.69
2023-05-21T10:35:02.333Z,100313.66
2023-05-21T10:37:29.638Z,100305.81
2023-05-21T10:39:56.641Z,100306.73
2023-05-21T10:42:30.626Z,100304.34
2023-05-21T10:45:12.308Z,100309.56
2023-05-21T10:48:01.903Z,100313.30
2023-05-21T10:51:06.716Z,100310.60
2023-05-21T10:53:52.319Z,100313.23
2023-05-21T10:56:31.471Z,100315.14
2023-05-21T10:59:05.339Z,100316.63
2023-05-21T11:01:34.549Z,100309.38
2023-05-21T11:04:01.642Z,100313.15
2023-05-21T11:06:29.753Z,100311.64
2023-05-21T11:08:56.777Z,100305.41
2023-05-21T11:11:42.950Z,100306.20
2023-05-21T11:14:32.644Z,100308.73
2023-05-21T11:17:01.930Z,100309.98
2023-05-21T11:19:39.299Z,100308.45
2023-05-21T11:22:22.564Z,100309.16
2023-05-21T11:24:51.539Z,100312.83
2023-05-21T11:27:38.631Z,100306.90
2023-05-21T11:30:07.279Z,100301.08
2023-05-21T11:33:01.571Z,100303.00
2023-05-21T11:35:28.826Z,100295.29
2023-05-21T11:37:55.553Z,100295.33
2023-05-21T11:40:26.510Z,100295.23
2023-05-21T11:42:54.550Z,100296.85
2023-05-21T11:45:22.536Z,100293.37
2023-05-21T11:47:49.883Z,100290.44
2023-05-21T11:50:17.966Z,100287.73
2023-05-21T11:52:45.510Z,100289.05
2023-05-21T11:55:12.377Z,100288.95
2023-05-21T11:57:42.775Z,100293.33
2023-05-21T12:00:15.583Z,100289.09
2023-05-21T12:02:48.438Z,100286.44
2023-05-21T12:05:17.352Z,100279.96
2023-05-21T12:07:48.907Z,100278.45
2023-05-21T12:10:15.909Z,100282.67
2023-05-21T12:12:53.937Z,100283.52
2023-05-21T12:15:24.409Z,100276.88
2023-05-21T12:17:53.071Z,100276.39
2023-05-21T12:20:20.579Z,100278.88
2023-05-21T12:22:49.077Z,100278.52
2023-05-21T12:25:20.159Z,100276.40
2023-05-21T12:27:47.729Z,100272.08
2023-05-21T12:30:14.399Z,100271.88
2023-05-21T12:32:47.361Z,100276.46
2023-05-21T12:35:21.737Z,100277.06
2023-05-21T12:37:50.656Z,100273.10
2023-05-21T12:40:18.038Z,100276.48
2023-05-21T12:42:44.830Z,100272.59
2023-05-21T12:45:11.991Z,100275.79
2023-05-21T12:47:38.731Z,100272.80
2023-05-21T12:50:09.377Z,100269.60
2023-05-21T12:52:36.062Z,100264.92
2023-05-21T12:55:03.224Z,100263.07
2023-05-21T12:57:37.265Z,100262.88
2023-05-21T13:00:06.930Z,100264.83
2023-05-21T13:02:44.186Z,100260.45
2023-05-21T13:05:19.489Z,100262.16
2023-05-21T13:07:51.603Z,100264.09
2023-05-21T13:10:18.667Z,100267.41
2023-05-21T13:12:46.082Z,100265.80
2023-05-21T13:15:12.934Z,100257.17
2023-05-21T13:17:39.882Z,100252.27
2023-05-21T13:20:13.018Z,100254.99
2023-05-21T13:22:46.726Z,100253.95
2023-05-21T13:25:15.877Z,100260.94
2023-05-21T13:27:43.284Z,100254.99
2023-05-21T13:30:11.484Z,100250.86
2023-05-21T13:32:38.799Z,100252.88
2023-05-21T13:35:06.057Z,100245.42
2023-05-21T13:37:34.860Z,100244.77
2023-05-21T13:40:06.493Z,100248.77
2023-05-21T13:42:38.430Z,100246.10
2023-05-21T13:45:06.769Z,100241.55
2023-05-21T13:47:34.006Z,100240.73
2023-05-21T13:50:00.758Z,100241.64
2023-05-21T13:52:27.455Z,100240.02
2023-05-21T13:54:54.409Z,100237.48
2023-05-21T13:57:21.447Z,100235.74
2023-05-21T13:59:48.723Z,100235.44
2023-05-21T14:02:15.645Z,100238.21
2023-05-21T14:04:42.348Z,100236.30
2023-05-21T14:07:09.995Z,100234.80
2023-05-21T14:09:37.345Z,100229.39
2023-05-21T14:12:06.552Z,100226.55
2023-05-21T14:14:34.425Z,100224.56
2023-05-21T14:17:01.526Z,100222.91
2023-05-21T14:19:29.501Z,100220.91
2023-05-21T14:21:56.724Z,100224.67
2023-05-21T14:24:23.530Z,100223.52
2023-05-21T14:26:50.304Z,100222.11
2023-05-21T14:29:16.978Z,100218.70
2023-05-21T14:31:43.774Z,100220.55
2023-05-21T14:34:10.877Z,100214.96
2023-05-21T14:36:37.670Z,100211.71
2023-05-21T14:39:04.439Z,100211.27
2023-05-21T14:41:31.267Z,100212.63
2023-05-21T14:43:58.080Z,100211.39
2023-05-21T14:46:25.086Z,100207.50
2023-05-21T14:48:52.805Z,100213.11
2023-05-21T14:51:19.546Z,100207.23
2023-05-21T14:53:46.348Z,100211.83
2023-05-21T14:56:13.061Z,100213.35
2023-05-21T14:58:39.824Z,100211.72
2023-05-21T15:01:06.688Z,100206.42
2023-05-21T15:03:33.614Z,100205.21
2023-05-21T15:06:00.491Z,100201.51
2023-05-21T15:08:27.376Z,100196.33
2023-05-21T15:10:54.096Z,100206.53
2023-05-21T15:13:21.525Z,100202.08
2023-05-21T15:15:49.609Z,100198.60
2023-05-21T15:18:17.059Z,100198.72
2023-05-21T15:20:44.433Z,100197.38
2023-05-21T15:23:17.317Z,100197.13
2023-05-21T15:25:46.747Z,100197.95
2023-05-21T15:28:13.556Z,100196.77
2023-05-21T15:30:40.566Z,100196.53
2023-05-21T15:33:07.334Z,100195.30
2023-05-21T15:35:37.749Z,100194.36
2023-05-21T15:38:04.861Z,100193.45
2023-05-21T15:40:32.228Z,100192.61
2023-05-21T15:42:59.018Z,100194.45
2023-05-21T15:45:25.797Z,100193.21
2023-05-21T15:47:52.723Z,100190.38
2023-05-21T15:50:21.985Z,100189.80
2023-05-21T15:52:49.805Z,100191.80
2023-05-21T15:55:19.340Z,100194.09
2023-05-21T15:57:46.060Z,100193.28
2023-05-21T16:00:13.576Z,100192.45
2023-05-21T16:02:41.872Z,100192.20
2023-05-21T16:05:09.460Z,100192.55
2023-05-21T16:07:37.927Z,100191.40
2023-05-21T16:10:06.516Z,100189.98
2023-05-21T16:12:33.362Z,100189.90
2023-05-21T16:15:00.169Z,100189.02
2023-05-21T16:17:26.900Z,100192.68
2023-05-21T16:19:53.810Z,100194.10
2023-05-21T16:22:20.917Z,100195.24
2023-05-21T16:24:47.929Z,100195.77
2023-05-21T16:27:14.746Z,100193.19
2023-05-21T16:29:41.787Z,100191.35
2023-05-21T16:32:09.937Z,100188.92
2023-05-21T16:34:36.792Z,100188.36
2023-05-21T16:37:03.556Z,100189.73
2023-05-21T16:39:30.240Z,100183.87
2023-05-21T16:41:59.771Z,100187.79
2023-05-21T16:44:27.498Z,100186.41
2023-05-21T16:46:54.504Z,100187.35
2023-05-21T16:49:21.332Z,100183.29
2023-05-21T16:51:48.056Z,100181.13
2023-05-21T16:54:14.778Z,100177.46
2023-05-21T16:56:41.488Z,100175.82
2023-05-21T16:59:08.244Z,100173.95
2023-05-21T17:01:35.004Z,100171.15
2023-05-21T17:04:02.139Z,100167.95
2023-05-21T17:06:29.044Z,100166.75
2023-05-21T17:08:55.750Z,100164.58
2023-05-21T17:11:22.484Z,100168.63
2023-05-21T17:13:49.373Z,100167.84
2023-05-21T17:16:16.234Z,100164.86
2023-05-21T17:18:43.171Z,100161.20
2023-05-21T17:21:10.223Z,100158.57
2023-05-21T17:23:37.004Z,100160.36
2023-05-21T17:26:03.715Z,100156.88
2023-05-21T17:28:30.460Z,100157.35
2023-05-21T17:30:57.210Z,100156.24
2023-05-21T17:33:24.723Z,100158.75
2023-05-21T17:35:51.448Z,100154.30
2023-05-21T17:38:18.103Z,100155.73
2023-05-21T17:40:44.869Z,100152.05
2023-05-21T17:43:11.593Z,100152.66
2023-05-21T17:45:38.804Z,100153.55
2023-05-21T17:48:06.139Z,100151.88
2023-05-21T17:50:34.415Z,100153.21
2023-05-21T17:53:01.185Z,100151.11
2023-05-21T17:55:28.239Z,100152.22
2023-05-21T17:57:54.974Z,100154.49
2023-05-21T18:00:21.721Z,100157.02
2023-05-21T18:02:48.754Z,100157.70
2023-05-21T18:05:15.665Z,100157.05
2023-05-21T18:07:42.356Z,100159.22
2023-05-21T18:10:09.861Z,100161.31
2023-05-21T18:12:37.207Z,100158.52
2023-05-21T18:15:04.209Z,100161.85
2023-05-21T18:17:31.334Z,100158.89
2023-05-21T18:20:01.241Z,100159.39
2023-05-21T18:22:27.915Z,100160.77
2023-05-21T18:24:54.692Z,100162.71
2023-05-21T18:27:21.658Z,100162.64
2023-05-21T18:29:49.497Z,100158.08
2023-05-21T18:32:17.773Z,100162.08
2023-05-21T18:34:44.819Z,100157.31
2023-05-21T18:37:11.554Z,100159.55
2023-05-21T18:39:38.268Z,100154.27
2023-05-21T18:42:13.480Z,100152.60
2023-05-21T18:44:41.110Z,100157.05
2023-05-21T18:47:08.260Z,100152.46
2023-05-21T18:49:36.270Z,100155.14
2023-05-21T18:52:04.561Z,100155.92
2023-05-21T18:54:31.506Z,100156.56
2023-05-21T18:57:00.536Z,100151.61
2023-05-21T18:59:28.305Z,100153.23
2023-05-21T19:01:55.081Z,100150.19
2023-05-21T19:04:21.917Z,100146.63
2023-05-21T19:06:48.726Z,100147.19
2023-05-21T19:09:15.492Z,100147.22
2023-05-21T19:11:42.201Z,100143.91
2023-05-21T19:14:09.155Z,100143.14
2023-05-21T19:16:36.320Z,100143.46
2023-05-21T19:19:04.196Z,100139.41
2023-05-21T19:21:31.621Z,100137.17
2023-05-21T19:23:58.738Z,100139.45
2023-05-21T19:26:25.667Z,100138.39
2023-05-21T19:28:55.594Z,100133.94
2023-05-21T19:31:22.582Z,100133.31
2023-05-21T19:33:49.641Z,100136.21
2023-05-21T19:36:16.647Z,100130.79
2023-05-21T19:38:48.364Z,100134.88
2023-05-21T19:41:18.567Z,100133.83
2023-05-21T19:43:45.828Z,100134.21
2023-05-21T19:46:13.033Z,100132.00
2023-05-21T19:48:39.930Z,100130.96
2023-05-21T19:51:06.654Z,100134.53
2023-05-21T19:53:33.426Z,100133.77
2023-05-21T19:56:00.308Z,100132.52
2023-05-21T19:58:29.604Z,100130.42
2023-05-21T20:00:58.598Z,100128.95
2023-05-21T20:03:26.441Z,100129.54
2023-05-21T20:05:53.435Z,100130.36
2023-05-21T20:08:20.183Z,100128.91
2023-05-21T20:10:48.049Z,100135.80
2023-05-21T20:13:17.206Z,100137.28
2023-05-21T20:15:44.437Z,100139.73
2023-05-21T20:18:12.770Z,100146.81
2023-05-21T20:20:41.187Z,100147.23
2023-05-21T20:23:08.613Z,100143.17
2023-05-21T20:25:35.330Z,100138.29
2023-05-21T20:28:02.966Z,100142.23
2023-05-21T20:30:34.016Z,100142.98
2023-05-21T20:33:03.985Z,100143.02
2023-05-21T20:35:30.912Z,100141.76
2023-05-21T20:37:57.730Z,100136.02
2023-05-21T20:40:24.762Z,100136.98
2023-05-21T20:42:53.559Z,100138.52
2023-05-21T20:45:21.185Z,100138.66
2023-05-21T20:47:49.952Z,100137.66
2023-05-21T20:50:25.804Z,100136.40
2023-05-21T20:52:52.590Z,100138.80
2023-05-21T20:55:20.848Z,100139.55
2023-05-21T20:57:47.594Z,100142.60
2023-05-21T21:00:16.225Z,100138.58
2023-05-21T21:02:44.120Z,100143.91
2023-05-21T21:05:11.690Z,100142.06
2023-05-21T21:07:38.613Z,100138.42
2023-05-21T21:10:06.228Z,100137.76
2023-05-21T21:12:32.924Z,100137.75
2023-05-21T21:14:59.896Z,100134.27
2023-05-21T21:17:26.726Z,100137.73
2023-05-21T21:19:53.475Z,100141.59
2023-05-21T21:22:20.184Z,100142.12
2023-05-21T21:24:47.503Z,100143.32
2023-05-21T21:27:14.248Z,100141.35
2023-05-21T21:29:40.941Z,100140.20
2023-05-21T21:32:07.987Z,100136.23
2023-05-21T21:34:34.749Z,100134.36
2023-05-21T21:37:01.424Z,100135.70
2023-05-21T21:39:28.158Z,100132.76
2023-05-21T21:44:46.645Z,100126.63
2023-05-21T21:47:13.340Z,100132.84
2023-05-21T21:49:40.045Z,100132.91
2023-05-21T21:52:07.159Z,100132.36
2023-05-21T21:54:34.531Z,100133.23
2023-05-21T21:57:01.505Z,100138.34
2023-05-21T21:59:28.261Z,100140.30
2023-05-21T22:01:54.961Z,100142.61
2023-05-21T22:04:21.685Z,100142.05
2023-05-21T22:06:48.580Z,100145.08
2023-05-21T22:09:16.983Z,100145.59
2023-05-21T22:11:43.690Z,100144.12
2023-05-21T22:14:11.801Z,100140.40
2023-05-21T22:16:38.583Z,100140.94
2023-05-21T22:19:05.376Z,100137.19
2023-05-21T22:21:33.129Z,100139.91
2023-05-21T22:24:00.187Z,100139.71
2023-05-21T22:26:26.980Z,100138.56
2023-05-21T22:28:53.762Z,100143.73
2023-05-21T22:31:21.015Z,100141.77
2023-05-21T22:33:47.892Z,100143.13
2023-05-21T22:36:14.568Z,100139.45
2023-05-21T22:38:41.623Z,100141.34
2023-05-21T22:41:08.706Z,100136.63
2023-05-21T22:43:35.619Z,100136.42
2023-05-21T22:46:02.868Z,100134.67
2023-05-21T22:48:30.754Z,100129.58
2023-05-21T22:50:58.396Z,100134.89
2023-05-21T22:53:25.678Z,100131.23
2023-05-21T22:55:52.369Z,100132.72
2023-05-21T22:58:19.109Z,100132.03
2023-05-21T23:00:46.975Z,100131.92
2023-05-21T23:03:14.058Z,100133.00
2023-05-21T23:05:41.186Z,100134.27
2023-05-21T23:08:08.157Z,100129.06
2023-05-21T23:10:35.785Z,100128.30
2023-05-21T23:13:02.551Z,100128.66
2023-05-21T23:15:32.136Z,100126.95
2023-05-21T23:17:59.635Z,100129.05
2023-05-21T23:20:26.469Z,100126.17
2023-05-21T23:22:53.173Z,100122.66
2023-05-21T23:25:19.922Z,100124.73
2023-05-21T23:27:46.971Z,100125.98
2023-05-21T23:30:13.865Z,100118.52
2023-05-21T23:32:41.041Z,100120.10
2023-05-21T23:35:09.594Z,100118.67
2023-05-21T23:37:36.421Z,100121.45
2023-05-21T23:40:03.411Z,100118.91
2023-05-21T23:42:30.184Z,100118.48
2023-05-21T23:44:56.914Z,100117.33
2023-05-21T23:47:23.646Z,100118.70
2023-05-21T23:49:50.359Z,100118.41
2023-05-21T23:52:18.325Z,100117.10
2023-05-21T23:54:45.008Z,100120.33
2023-05-21T23:57:11.747Z,100115.34
2023-05-21T23:59:38.602Z,100115.69
